Time;durP1;ratioP1;P1;durP2;ratioP2;P2;SDS_P1;SDS_P2;PMS_P1;PMS_P2;Temp;Humidity;BMP_temperature;BMP_pressure;BME280_temperature;BME280_humidity;BME280_pressure;Samples;Min_cycle;Max_cycle;Signal;HPM_P1;HPM_P2
2021/09/29 00:01:48;;;;;;;10.40;2.33;;;;;;;18.29;54.46;101159.25;5035419;28;20528;-66
2021/09/29 00:04:15;;;;;;;9.02;1.92;;;;;;;18.38;54.38;101150.75;5035987;28;20500;-68
2021/09/29 00:06:43;;;;;;;6.35;1.30;;;;;;;18.30;54.59;101144.16;5035922;28;20049;-67
2021/09/29 00:09:10;;;;;;;7.50;1.35;;;;;;;18.42;54.56;101140.53;5035811;28;20049;-66
2021/09/29 00:11:38;;;;;;;8.90;1.73;;;;;;;18.17;54.98;101136.19;5036411;28;20408;-67
2021/09/29 00:14:05;;;;;;;10.70;1.80;;;;;;;18.09;55.22;101135.19;5038688;28;20053;-67
2021/09/29 00:16:32;;;;;;;11.73;1.58;;;;;;;18.23;55.04;101140.34;5036884;28;20054;-68
2021/09/29 00:19:00;;;;;;;8.45;1.60;;;;;;;18.27;54.76;101144.84;5035774;28;20057;-67
2021/09/29 00:21:27;;;;;;;6.07;1.58;;;;;;;18.18;55.08;101135.84;5035596;28;20492;-67
2021/09/29 00:23:54;;;;;;;7.05;1.20;;;;;;;18.23;55.32;101141.19;5035179;28;20052;-67
2021/09/29 00:26:21;;;;;;;6.32;1.42;;;;;;;18.19;55.19;101140.25;5034581;28;20385;-67
2021/09/29 00:28:49;;;;;;;6.43;1.35;;;;;;;18.31;55.16;101131.00;5033813;28;20053;-66
2021/09/29 00:31:26;;;;;;;7.18;1.38;;;;;;;18.17;55.01;101145.38;5035577;28;20042;-67
2021/09/29 00:36:53;;;;;;;;;;;;;;;18.16;55.42;101140.97;5033749;28;20061;-66
2021/09/29 00:39:20;;;;;;;7.20;1.45;;;;;;;18.25;55.57;101121.28;5039505;28;19928;-67
2021/09/29 00:41:48;;;;;;;8.65;2.00;;;;;;;18.18;55.48;101132.25;5034094;28;20056;-66
2021/09/29 00:44:15;;;;;;;8.68;1.85;;;;;;;18.19;55.72;101122.69;5035175;28;20057;-67
2021/09/29 00:46:43;;;;;;;6.65;1.52;;;;;;;18.17;55.93;101117.47;5031757;28;20045;-66
2021/09/29 00:49:12;;;;;;;7.70;1.25;;;;;;;18.19;56.22;101105.97;5033660;28;20049;-67
2021/09/29 00:51:40;;;;;;;8.35;1.60;;;;;;;18.17;56.13;101109.13;5034407;28;20046;-67
2021/09/29 00:54:08;;;;;;;7.72;1.70;;;;;;;18.06;56.59;101116.38;5034094;28;20540;-66
2021/09/29 00:56:35;;;;;;;5.85;1.08;;;;;;;18.24;56.18;101106.53;5034686;28;20052;-66
2021/09/29 00:59:03;;;;;;;10.18;1.42;;;;;;;18.32;56.12;101101.97;5034138;28;20053;-67
2021/09/29 01:01:32;;;;;;;9.95;2.17;;;;;;;18.17;56.23;101105.50;5016991;28;20049;-67
2021/09/29 01:04:00;;;;;;;10.57;1.40;;;;;;;18.10;56.31;101099.75;5033501;28;20416;-66
2021/09/29 01:06:57;;;;;;;8.70;1.30;;;;;;;18.15;56.35;101100.28;5033391;28;20049;-66
2021/09/29 01:09:44;;;;;;;9.88;1.60;;;;;;;18.09;57.01;101087.78;5030251;28;20057;-62
2021/09/29 01:12:41;;;;;;;6.65;1.58;;;;;;;18.17;56.94;101097.97;5032314;28;20057;-67
2021/09/29 01:15:12;;;;;;;8.35;1.40;;;;;;;17.97;57.40;101099.00;5031995;28;20057;-66
2021/09/29 01:17:44;;;;;;;10.90;1.65;;;;;;;17.95;57.79;101095.75;5034645;28;20049;-66
2021/09/29 01:20:15;;;;;;;8.60;1.67;;;;;;;18.06;57.52;101080.16;5017277;28;20413;-67
2021/09/29 01:22:50;;;;;;;8.60;1.58;;;;;;;18.13;57.52;101082.31;5032028;28;20056;-66
2021/09/29 01:25:49;;;;;;;6.07;1.30;;;;;;;18.20;57.37;101086.09;5033462;28;20053;-67
2021/09/29 01:28:19;;;;;;;9.82;1.42;;;;;;;18.17;57.38;101089.59;5030474;28;20066;-66
2021/09/29 01:30:47;;;;;;;8.50;1.70;;;;;;;18.16;57.44;101087.16;5035327;28;20053;-67
2021/09/29 01:33:15;;;;;;;6.82;1.40;;;;;;;18.06;57.84;101093.25;5032805;28;20068;-60
2021/09/29 01:35:43;;;;;;;7.90;1.63;;;;;;;17.91;58.46;101076.13;5034395;28;20620;-61
2021/09/29 01:38:10;;;;;;;7.40;1.27;;;;;;;17.87;58.44;101079.94;5016456;28;20046;-61
2021/09/29 01:40:38;;;;;;;6.70;1.70;;;;;;;18.04;58.43;101073.28;5051749;28;20385;-67
2021/09/29 01:43:05;;;;;;;8.40;1.55;;;;;;;17.96;58.53;101072.25;5053014;28;20049;-61
2021/09/29 01:45:35;;;;;;;7.32;1.40;;;;;;;17.95;58.17;101067.88;5054117;28;20235;-65
2021/09/29 01:48:02;;;;;;;5.55;1.33;;;;;;;17.91;58.57;101059.41;5054549;28;20064;-66
2021/09/29 01:50:31;;;;;;;6.65;1.75;;;;;;;17.99;58.45;101071.56;5015582;28;20496;-70
2021/09/29 01:53:00;;;;;;;10.70;1.45;;;;;;;18.07;58.49;101062.25;5033196;28;20049;-66
2021/09/29 01:55:28;;;;;;;7.50;1.10;;;;;;;18.13;58.36;101069.19;5032926;28;20546;-62
2021/09/29 01:57:56;;;;;;;9.40;1.83;;;;;;;17.93;59.22;101072.97;5034317;28;20053;-60
2021/09/29 02:00:23;;;;;;;8.52;1.58;;;;;;;17.91;59.58;101080.88;5032744;28;20049;-60
2021/09/29 02:02:56;;;;;;;7.22;1.40;;;;;;;17.74;59.95;101082.00;5034291;28;20054;-67
2021/09/29 02:05:32;;;;;;;7.07;1.63;;;;;;;17.78;59.92;101079.31;5033066;28;20049;-67
2021/09/29 02:08:02;;;;;;;10.48;1.58;;;;;;;17.75;60.55;101068.84;5034296;28;20520;-67
2021/09/29 02:10:30;;;;;;;8.32;1.20;;;;;;;17.82;60.59;101061.53;5032928;28;20055;-66
2021/09/29 02:12:57;;;;;;;4.90;1.17;;;;;;;17.76;60.74;101062.13;5034827;28;20068;-67
2021/09/29 02:15:25;;;;;;;5.97;1.10;;;;;;;17.78;61.04;101054.22;5032946;28;20515;-66
2021/09/29 02:17:52;;;;;;;8.38;1.48;;;;;;;17.87;60.70;101052.91;5016311;28;20050;-66
2021/09/29 02:20:20;;;;;;;10.68;1.63;;;;;;;17.92;60.76;101047.06;5016650;28;20072;-61
2021/09/29 02:22:47;;;;;;;7.60;1.63;;;;;;;17.93;60.86;101059.88;5032100;28;20049;-66
2021/09/29 02:25:14;;;;;;;6.90;1.13;;;;;;;17.92;60.96;101055.44;5035816;28;20050;-66
2021/09/29 02:27:42;;;;;;;5.40;1.35;;;;;;;17.75;61.75;101066.88;5037337;28;20057;-66
2021/09/29 02:30:10;;;;;;;6.97;1.55;;;;;;;17.86;61.53;101059.66;5037909;28;20061;-67
2021/09/29 02:32:38;;;;;;;7.15;1.20;;;;;;;17.84;62.14;101050.00;5035704;28;20045;-62
2021/09/29 02:35:08;;;;;;;8.57;1.40;;;;;;;17.74;62.80;101059.69;5036124;28;20488;-61
2021/09/29 02:37:36;;;;;;;7.38;1.20;;;;;;;17.81;62.74;101048.75;5035861;28;20144;-61
2021/09/29 02:40:05;;;;;;;6.88;1.60;;;;;;;17.87;62.51;101066.03;5049876;28;20124;-60
2021/09/29 02:42:32;;;;;;;8.63;1.50;;;;;;;17.93;62.56;101056.25;5039377;28;20137;-61
2021/09/29 02:45:01;;;;;;;6.43;1.58;;;;;;;17.80;63.26;101075.00;5047185;28;20045;-61
2021/09/29 02:47:28;;;;;;;9.63;1.52;;;;;;;17.64;63.99;101074.09;5036030;28;20053;-61
2021/09/29 02:49:55;;;;;;;10.02;1.40;;;;;;;17.77;63.69;101052.59;5037068;28;20052;-66
2021/09/29 02:52:23;;;;;;;9.65;1.50;;;;;;;17.58;64.58;101067.16;5035112;28;20068;-67
2021/09/29 02:54:54;;;;;;;8.80;2.15;;;;;;;17.63;64.66;101071.66;5036984;28;20057;-68
2021/09/29 02:57:25;;;;;;;7.18;1.25;;;;;;;17.74;64.37;101079.19;5037717;28;20073;-67
2021/09/29 02:59:53;;;;;;;13.00;1.98;;;;;;;17.74;64.18;101079.19;5037005;28;20054;-67
2021/09/29 03:02:20;;;;;;;9.18;1.40;;;;;;;17.86;64.06;101090.31;5037626;28;20049;-67
2021/09/29 03:04:48;;;;;;;8.23;1.30;;;;;;;17.77;64.20;101075.69;5035441;28;20056;-68
2021/09/29 03:07:15;;;;;;;6.13;1.25;;;;;;;17.94;63.92;101072.63;5037186;28;20499;-68
2021/09/29 03:09:42;;;;;;;8.02;1.60;;;;;;;18.07;63.20;101069.78;5036382;28;20669;-66
2021/09/29 03:12:10;;;;;;;7.80;1.17;;;;;;;18.01;63.44;101072.00;5036947;28;20049;-67
2021/09/29 03:14:37;;;;;;;8.48;1.65;;;;;;;17.94;63.79;101074.59;5037041;28;20053;-67
2021/09/29 03:17:04;;;;;;;5.47;1.30;;;;;;;17.92;64.35;101076.94;5036420;28;20058;-67
2021/09/29 03:19:32;;;;;;;7.15;1.40;;;;;;;18.01;63.82;101074.00;5035654;28;20057;-68
2021/09/29 03:22:02;;;;;;;10.65;1.95;;;;;;;17.95;64.06;101062.28;5035922;28;20072;-66
2021/09/29 03:24:30;;;;;;;6.00;1.50;;;;;;;18.03;63.95;101066.09;5036599;28;20543;-65
2021/09/29 03:26:57;;;;;;;4.55;1.13;;;;;;;17.94;64.59;101069.00;5036133;28;20046;-67
2021/09/29 03:29:24;;;;;;;8.48;1.75;;;;;;;18.10;64.34;101072.66;5037113;28;20041;-67
2021/09/29 03:31:52;;;;;;;6.57;1.23;;;;;;;18.07;64.27;101061.41;5035802;28;20053;-66
2021/09/29 03:34:19;;;;;;;7.72;1.40;;;;;;;17.94;64.97;101067.03;5035167;28;20055;-67
2021/09/29 03:36:47;;;;;;;9.20;1.20;;;;;;;17.98;65.14;101062.41;5034019;28;20489;-67
2021/09/29 03:39:14;;;;;;;6.90;1.70;;;;;;;18.01;65.06;101069.22;5043558;28;20045;-66
2021/09/29 03:41:44;;;;;;;7.45;1.30;;;;;;;17.96;65.29;101067.50;5056845;28;20049;-67
2021/09/29 03:44:11;;;;;;;10.43;1.67;;;;;;;17.93;65.39;101075.75;5056138;28;20044;-61
2021/09/29 03:46:38;;;;;;;5.05;0.95;;;;;;;17.98;65.46;101073.53;5049744;28;20054;-62
2021/09/29 03:49:06;;;;;;;4.57;1.17;;;;;;;17.97;65.28;101077.47;5034954;28;20045;-67
2021/09/29 03:51:33;;;;;;;8.50;1.45;;;;;;;17.95;65.19;101079.00;5033772;28;20056;-67
2021/09/29 03:54:00;;;;;;;7.07;1.40;;;;;;;18.03;65.08;101088.41;5035389;28;20068;-66
2021/09/29 03:56:28;;;;;;;8.13;1.38;;;;;;;17.77;66.13;101095.22;5036695;28;20053;-66
2021/09/29 03:58:55;;;;;;;6.65;1.63;;;;;;;17.85;65.92;101090.66;5034098;28;20049;-66
2021/09/29 04:01:23;;;;;;;8.48;1.20;;;;;;;17.94;65.52;101080.97;5035851;28;20057;-66
2021/09/29 04:03:50;;;;;;;6.45;1.00;;;;;;;17.73;66.41;101094.28;5035581;28;20056;-61
2021/09/29 04:06:17;;;;;;;3.97;1.00;;;;;;;17.55;67.21;101084.59;5034629;28;20053;-61
2021/09/29 04:08:44;;;;;;;8.98;1.48;;;;;;;17.66;67.02;101093.28;5034626;28;20405;-61
2021/09/29 04:11:12;;;;;;;4.50;1.20;;;;;;;17.73;66.78;101091.50;5034107;28;20034;-66
2021/09/29 04:13:39;;;;;;;9.13;1.27;;;;;;;17.67;66.76;101087.34;5036099;28;20077;-68
2021/09/29 04:16:07;;;;;;;7.18;1.30;;;;;;;17.87;66.35;101091.09;5035487;28;20053;-66
2021/09/29 04:18:34;;;;;;;7.97;1.80;;;;;;;17.60;66.96;101098.28;5036418;28;20053;-66
2021/09/29 04:21:01;;;;;;;7.95;1.25;;;;;;;17.61;67.21;101097.09;5035039;28;20508;-67
2021/09/29 04:23:29;;;;;;;8.15;1.27;;;;;;;17.79;66.72;101100.41;5035971;28;20056;-69
2021/09/29 04:25:56;;;;;;;6.13;1.00;;;;;;;17.76;66.75;101101.97;5033581;28;20061;-67
2021/09/29 04:28:23;;;;;;;8.98;1.40;;;;;;;17.84;66.62;101105.75;5036156;28;20046;-67
2021/09/29 04:30:51;;;;;;;11.07;1.33;;;;;;;17.82;67.00;101103.31;5033969;28;20061;-67
2021/09/29 04:33:18;;;;;;;5.30;1.20;;;;;;;17.83;66.97;101104.97;5035282;28;20054;-67
2021/09/29 04:35:45;;;;;;;7.30;1.70;;;;;;;17.85;66.71;101110.97;5035027;28;20057;-68
2021/09/29 04:38:13;;;;;;;6.63;1.42;;;;;;;17.82;66.72;101111.69;5034212;28;20160;-67
2021/09/29 04:40:40;;;;;;;5.70;1.05;;;;;;;17.79;66.76;101109.59;5054739;28;20634;-67
2021/09/29 04:43:08;;;;;;;7.93;1.55;;;;;;;17.69;67.25;101114.84;5055293;28;20037;-67
2021/09/29 04:45:35;;;;;;;5.65;1.23;;;;;;;17.87;67.08;101107.81;5048169;28;20053;-67
2021/09/29 04:48:03;;;;;;;5.60;1.20;;;;;;;17.87;67.62;101125.38;5034312;28;20413;-67
2021/09/29 04:50:31;;;;;;;6.00;1.10;;;;;;;17.83;68.20;101132.00;5033635;28;20062;-67
2021/09/29 04:52:59;;;;;;;5.53;1.10;;;;;;;17.82;68.21;101130.38;5029164;28;20045;-67
2021/09/29 04:55:26;;;;;;;5.75;1.25;;;;;;;17.79;68.20;101126.31;5035492;28;20056;-67
2021/09/29 04:57:53;;;;;;;5.18;1.02;;;;;;;17.59;69.22;101141.19;5034597;28;20042;-66
2021/09/29 05:00:21;;;;;;;5.07;1.25;;;;;;;17.90;68.34;101140.59;5035435;28;20050;-67
2021/09/29 05:02:49;;;;;;;2.92;0.95;;;;;;;17.25;70.46;101151.97;5034786;28;20042;-68
2021/09/29 05:05:17;;;;;;;4.45;0.90;;;;;;;16.68;73.10;101177.84;5034459;28;20385;-61
2021/09/29 05:07:51;;;;;;;3.95;0.57;;;;;;;15.88;74.03;101172.00;5033596;28;20050;-62
2021/09/29 05:10:45;;;;;;;3.75;0.70;;;;;;;15.28;75.37;101181.47;5001064;28;20424;-62
2021/09/29 05:13:17;;;;;;;6.38;0.90;;;;;;;15.96;74.99;101190.56;5034484;28;20049;-62
2021/09/29 05:15:44;;;;;;;6.03;0.90;;;;;;;16.13;74.52;101182.09;5033469;28;20049;-62
2021/09/29 05:18:12;;;;;;;5.93;0.90;;;;;;;16.37;73.46;101182.25;5033768;28;20061;-62
2021/09/29 05:20:39;;;;;;;4.20;0.88;;;;;;;16.77;71.62;101175.00;5033398;28;20046;-61
2021/09/29 05:23:06;;;;;;;3.80;0.70;;;;;;;16.55;71.45;101183.72;5035032;28;20045;-61
2021/09/29 05:25:34;;;;;;;2.67;0.80;;;;;;;16.58;71.94;101185.84;5034126;28;20052;-61
2021/09/29 05:28:02;;;;;;;2.75;0.73;;;;;;;16.53;70.94;101191.59;5035191;28;20599;-62
2021/09/29 05:30:29;;;;;;;3.88;0.77;;;;;;;16.47;71.91;101185.44;5034146;28;20048;-61
2021/09/29 05:32:56;;;;;;;2.58;0.88;;;;;;;16.59;71.78;101190.22;5035158;28;20057;-62
2021/09/29 05:35:23;;;;;;;3.70;1.17;;;;;;;16.39;70.96;101204.94;5033069;28;20058;-60
2021/09/29 05:37:51;;;;;;;4.22;0.73;;;;;;;15.91;72.00;101205.50;5034418;28;20060;-61
2021/09/29 05:40:18;;;;;;;2.53;0.70;;;;;;;16.22;72.90;101208.69;5037203;28;20061;-61
2021/09/29 05:42:45;;;;;;;2.95;0.70;;;;;;;16.55;71.13;101219.88;5034349;28;20453;-66
2021/09/29 05:45:13;;;;;;;2.33;0.63;;;;;;;16.62;71.17;101220.97;5031943;28;20053;-63
2021/09/29 05:47:40;;;;;;;6.63;0.80;;;;;;;16.68;70.82;101224.34;5031048;28;20045;-63
2021/09/29 05:50:08;;;;;;;4.03;0.98;;;;;;;16.60;70.09;101237.16;5032753;28;20052;-63
2021/09/29 05:52:35;;;;;;;2.35;0.60;;;;;;;16.28;71.67;101237.09;5033757;28;20045;-62
2021/09/29 05:55:03;;;;;;;3.58;1.00;;;;;;;16.57;71.18;101231.47;5031758;28;20058;-62
2021/09/29 05:57:31;;;;;;;2.67;0.47;;;;;;;16.21;70.77;101239.59;5032681;28;20045;-61
2021/09/29 05:59:58;;;;;;;5.88;0.80;;;;;;;16.09;71.51;101239.53;5036463;28;20064;-63
2021/09/29 06:02:28;;;;;;;2.38;0.90;;;;;;;16.09;72.64;101245.88;5036784;28;20045;-66
2021/09/29 06:04:55;;;;;;;2.65;0.50;;;;;;;15.97;71.98;101250.56;5037577;28;20053;-66
2021/09/29 06:07:23;;;;;;;4.22;0.60;;;;;;;15.86;74.73;101263.19;5035827;28;20053;-62
2021/09/29 06:09:50;;;;;;;2.17;0.60;;;;;;;16.17;73.25;101267.25;5036069;28;20049;-61
2021/09/29 06:12:20;;;;;;;2.15;0.60;;;;;;;16.18;72.60;101268.09;5036425;28;20058;-64
2021/09/29 06:14:53;;;;;;;3.35;0.70;;;;;;;15.87;74.35;101275.94;5035428;28;20469;-63
2021/09/29 06:17:23;;;;;;;3.38;0.65;;;;;;;16.02;73.00;101283.72;5034240;28;20424;-62
2021/09/29 06:19:53;;;;;;;5.43;0.75;;;;;;;15.95;73.97;101292.59;5036025;28;20053;-67
2021/09/29 06:22:23;;;;;;;6.65;1.50;;;;;;;16.64;71.81;101304.06;5037666;28;20136;-69
2021/09/29 06:24:50;;;;;;;3.13;0.70;;;;;;;16.24;72.01;101306.47;5037321;28;20061;-68
2021/09/29 06:27:17;;;;;;;34.47;4.00;;;;;;;16.24;72.59;101309.22;5036421;28;20061;-69
2021/09/29 06:29:45;;;;;;;12.75;1.17;;;;;;;15.97;72.42;101322.81;5036706;28;20057;-72
2021/09/29 06:32:12;;;;;;;14.27;2.00;;;;;;;16.15;73.01;101338.22;5040115;28;20061;-69
2021/09/29 06:34:39;;;;;;;9.50;1.67;;;;;;;16.03;72.96;101335.34;5036189;28;20057;-71
2021/09/29 06:37:07;;;;;;;10.80;1.50;;;;;;;15.99;73.32;101337.97;5037587;28;20080;-68
2021/09/29 06:39:35;;;;;;;7.40;1.40;;;;;;;16.12;73.52;101341.69;5041770;28;20160;-70
2021/09/29 06:42:03;;;;;;;8.52;1.02;;;;;;;16.04;72.74;101340.56;5036050;28;20053;-71
2021/09/29 06:44:31;;;;;;;5.00;1.17;;;;;;;16.45;71.79;101354.56;5032220;28;20045;-69
2021/09/29 06:47:01;;;;;;;4.05;0.88;;;;;;;16.63;70.48;101358.06;5032914;28;20057;-69
2021/09/29 06:49:29;;;;;;;3.80;0.90;;;;;;;16.19;70.55;101364.22;5037199;28;20053;-70
2021/09/29 06:51:56;;;;;;;7.80;1.33;;;;;;;16.34;72.07;101367.22;5037442;28;20053;-69
2021/09/29 06:54:26;;;;;;;;;;;;;;;16.90;67.76;101368.66;5036479;28;20045;-69
2021/09/29 06:56:53;;;;;;;6.80;1.35;;;;;;;16.09;70.04;101368.16;5019539;28;19929;-71
2021/09/29 06:59:20;;;;;;;7.97;1.38;;;;;;;16.33;70.09;101373.94;5035802;28;20049;-64
2021/09/29 07:01:48;;;;;;;7.45;1.35;;;;;;;16.04;70.44;101381.47;5034599;28;20057;-64
2021/09/29 07:04:15;;;;;;;7.75;1.98;;;;;;;16.01;71.52;101390.44;5044022;28;20057;-64
2021/09/29 07:06:43;;;;;;;6.15;1.60;;;;;;;16.12;71.46;101394.47;5034704;28;20057;-63
2021/09/29 07:09:10;;;;;;;6.45;1.65;;;;;;;16.19;70.31;101400.34;5018894;28;20045;-64
2021/09/29 07:11:37;;;;;;;8.63;1.70;;;;;;;16.07;71.41;101398.28;5035385;28;20053;-63
2021/09/29 07:14:04;;;;;;;6.93;1.10;;;;;;;15.96;71.74;101399.78;5036480;28;20042;-69
2021/09/29 07:16:32;;;;;;;4.25;0.90;;;;;;;16.10;71.43;101400.38;5034682;28;20072;-70
2021/09/29 07:19:02;;;;;;;6.93;1.27;;;;;;;15.96;70.35;101410.91;5034951;28;20053;-68
2021/09/29 07:21:30;;;;;;;6.68;1.00;;;;;;;15.94;71.58;101412.38;5033311;28;20057;-63
2021/09/29 07:23:57;;;;;;;5.72;1.10;;;;;;;15.86;71.17;101414.03;5035988;28;20162;-64
2021/09/29 07:26:25;;;;;;;5.82;2.03;;;;;;;16.38;70.78;101411.84;5036206;28;20046;-69
2021/09/29 07:28:52;;;;;;;2.85;0.68;;;;;;;16.16;70.32;101412.94;5034987;28;20623;-63
2021/09/29 07:31:20;;;;;;;4.13;1.00;;;;;;;16.10;70.26;101416.22;5035118;28;20053;-70
2021/09/29 07:33:47;;;;;;;6.03;1.15;;;;;;;16.25;68.97;101416.50;5035540;28;20053;-63
2021/09/29 07:36:14;;;;;;;4.32;1.00;;;;;;;16.46;69.75;101420.19;5036442;28;20052;-67
2021/09/29 07:38:43;;;;;;;5.88;0.93;;;;;;;16.42;70.10;101419.19;5035820;28;20413;-62
2021/09/29 07:41:10;;;;;;;3.95;0.98;;;;;;;16.31;69.39;101433.81;5033791;28;20420;-63
2021/09/29 07:43:38;;;;;;;5.93;0.82;;;;;;;16.38;68.70;101434.09;5017282;28;20477;-69
2021/09/29 07:46:05;;;;;;;6.78;1.17;;;;;;;16.22;70.39;101438.56;5035429;28;20056;-70
2021/09/29 07:48:33;;;;;;;5.80;1.52;;;;;;;16.39;69.28;101441.28;5018360;28;20049;-69
2021/09/29 07:51:01;;;;;;;5.43;1.35;;;;;;;16.12;69.07;101447.28;5038770;28;20061;-69
2021/09/29 07:53:28;;;;;;;6.45;1.20;;;;;;;15.90;70.47;101453.09;5036199;28;20045;-70
2021/09/29 07:55:56;;;;;;;5.63;1.27;;;;;;;16.42;68.92;101452.53;5032546;28;20436;-69
2021/09/29 07:58:25;;;;;;;7.22;2.13;;;;;;;16.60;69.46;101464.44;5033742;28;20042;-70
2021/09/29 08:00:52;;;;;;;8.65;1.58;;;;;;;16.52;69.13;101465.31;5035000;28;20072;-70
2021/09/29 08:03:20;;;;;;;7.97;1.52;;;;;;;15.78;70.80;101464.88;5034709;28;20527;-69
2021/09/29 08:05:47;;;;;;;6.97;1.10;;;;;;;16.25;71.54;101474.88;5035346;28;20060;-67
2021/09/29 08:08:15;;;;;;;7.90;1.40;;;;;;;16.02;69.82;101494.91;5035325;28;20052;-63
2021/09/29 08:10:42;;;;;;;8.82;1.50;;;;;;;15.76;72.33;101479.09;5034157;28;20053;-64
2021/09/29 08:13:09;;;;;;;9.05;1.15;;;;;;;15.14;71.15;101483.34;5034875;28;20358;-65
2021/09/29 08:15:37;;;;;;;4.75;1.08;;;;;;;15.46;73.57;101491.22;5031925;28;20053;-64
2021/09/29 08:18:04;;;;;;;7.85;1.45;;;;;;;15.95;71.58;101489.88;5034674;28;20057;-65
2021/09/29 08:20:34;;;;;;;10.95;1.92;;;;;;;15.96;69.29;101488.69;5034016;28;20045;-64
2021/09/29 08:23:25;;;;;;;7.97;1.50;;;;;;;16.16;70.50;101489.97;5032722;28;20057;-65
2021/09/29 08:38:59;;;;;;;9.70;1.40;;;;;;;15.97;67.42;101523.66;5039023;28;20056;-63
2021/09/29 08:44:06;;;;;;;9.63;1.17;;;;;;;15.58;68.00;101535.00;5035025;28;20046;-63
2021/09/29 08:49:18;;;;;;;16.75;2.33;;;;;;;15.28;70.39;101547.03;5035416;28;20057;-64
2021/09/29 08:57:50;;;;;;;13.40;1.80;;;;;;;16.17;68.48;101542.44;5018686;28;20927;-62
2021/09/29 09:17:08;;;;;;;14.25;1.98;;;;;;;15.98;64.79;101571.72;5034000;28;20049;-65
2021/09/29 09:19:36;;;;;;;10.80;1.70;;;;;;;16.14;64.51;101586.75;5034605;28;20045;-64
2021/09/29 09:22:04;;;;;;;13.10;1.90;;;;;;;15.85;65.38;101579.09;5033007;28;20061;-62
2021/09/29 09:24:33;;;;;;;11.90;1.30;;;;;;;15.52;63.73;101598.22;5015595;28;20041;-63
2021/09/29 09:27:06;;;;;;;13.88;1.67;;;;;;;15.72;64.14;101586.47;5028040;28;20049;-64
2021/09/29 09:29:48;;;;;;;13.23;1.67;;;;;;;15.82;62.90;101576.16;5035407;28;20061;-62
2021/09/29 09:32:18;;;;;;;7.90;1.73;;;;;;;15.76;63.56;101597.72;5034359;28;20073;-68
2021/09/29 09:34:45;;;;;;;;;;;;;;;16.04;63.52;101596.25;5041501;28;20041;-64
2021/09/29 09:37:15;;;;;;;15.10;2.35;;;;;;;16.34;63.58;101598.00;5034900;28;19921;-63
2021/09/29 09:39:43;;;;;;;7.72;1.63;;;;;;;16.13;60.34;101596.22;5041174;28;20061;-63
2021/09/29 09:42:11;;;;;;;6.72;1.55;;;;;;;16.24;61.43;101611.44;5033645;28;20050;-63
2021/09/29 09:44:41;;;;;;;9.80;1.58;;;;;;;16.60;61.94;101603.50;5029768;28;20057;-61
2021/09/29 09:47:18;;;;;;;13.02;1.52;;;;;;;16.87;60.03;101591.97;5030684;28;20058;-62
2021/09/29 09:49:55;;;;;;;6.53;1.30;;;;;;;16.24;59.72;101606.69;5031281;28;20056;-63
2021/09/29 09:52:29;;;;;;;11.32;2.05;;;;;;;16.25;59.31;101607.50;5035595;28;20504;-63
2021/09/29 09:55:03;;;;;;;12.50;1.98;;;;;;;16.52;58.77;101612.72;5051665;28;20507;-63
2021/09/29 09:57:33;;;;;;;10.30;1.85;;;;;;;16.39;57.76;101608.09;5040942;28;20053;-62
2021/09/29 10:00:00;;;;;;;7.25;1.52;;;;;;;16.66;57.72;101611.38;5048874;28;20069;-64
2021/09/29 10:02:39;;;;;;;5.80;1.38;;;;;;;16.27;57.76;101625.47;5034290;28;20045;-62
2021/09/29 10:05:08;;;;;;;9.48;1.50;;;;;;;15.81;58.78;101617.03;5032866;28;20041;-63
2021/09/29 10:07:35;;;;;;;10.13;1.23;;;;;;;15.95;58.06;101623.25;5027890;28;20068;-68
2021/09/29 10:10:09;;;;;;;8.68;1.75;;;;;;;15.98;57.43;101627.31;5032564;28;20049;-69
2021/09/29 10:24:00;;;;;;;9.23;1.88;;;;;;;17.24;55.78;101630.09;5027315;28;20060;-64
2021/09/29 10:26:28;;;;;;;11.02;1.55;;;;;;;16.71;55.92;101632.59;4998025;28;20064;-67
2021/09/29 10:29:07;;;;;;;19.15;2.50;;;;;;;16.73;55.61;101628.38;5031807;28;20046;-64
2021/09/29 10:34:08;;;;;;;8.30;2.65;;;;;;;17.00;56.08;101629.06;5035914;28;20392;-69
2021/09/29 10:37:24;;;;;;;7.47;2.00;;;;;;;17.18;52.11;101634.22;5031945;28;20050;-69
2021/09/29 10:42:40;;;;;;;11.13;1.63;;;;;;;15.07;57.31;101705.00;5001291;28;20552;-64
2021/09/29 10:48:16;;;;;;;12.35;3.63;;;;;;;13.92;61.56;101702.34;5036321;28;20137;-66
2021/09/29 11:05:29;;;;;;;8.23;2.20;;;;;;;14.51;59.05;101713.97;5031957;28;20064;-66
2021/09/29 11:32:22;;;;;;;6.38;1.67;;;;;;;15.18;56.49;101730.53;5036120;28;20060;-67
2021/09/29 11:34:53;;;;;;;8.95;2.10;;;;;;;15.49;55.48;101725.78;5036057;28;20053;-69
2021/09/29 12:10:26;;;;;;;12.50;4.28;;;;;;;16.32;62.87;101794.91;5034180;28;20068;-63
2021/09/29 12:12:54;;;;;;;7.38;2.38;;;;;;;16.46;61.31;101798.41;5034971;28;20059;-63
2021/09/29 12:15:22;;;;;;;6.00;1.70;;;;;;;16.59;61.44;101779.91;5033299;28;20045;-67
2021/09/29 12:17:52;;;;;;;5.72;1.77;;;;;;;16.13;59.82;101790.78;5035183;28;20444;-63
2021/09/29 12:20:28;;;;;;;9.77;1.45;;;;;;;14.88;62.47;101790.41;5031089;28;20045;-64
2021/09/29 12:23:00;;;;;;;6.53;1.02;;;;;;;14.92;61.85;101807.25;5017705;28;20056;-62
2021/09/29 12:36:31;;;;;;;5.10;1.33;;;;;;;15.38;57.75;101789.06;5034606;28;20045;-68
2021/09/29 12:38:59;;;;;;;7.25;1.55;;;;;;;15.49;58.20;101787.69;5038596;28;20060;-65
2021/09/29 12:41:28;;;;;;;5.45;1.25;;;;;;;15.77;56.83;101785.50;5039458;28;20516;-61
2021/09/29 12:44:03;;;;;;;7.25;1.10;;;;;;;15.85;54.84;101789.44;5034629;28;20049;-62
2021/09/29 12:46:30;;;;;;;6.97;1.05;;;;;;;15.84;55.23;101788.63;5034584;28;20429;-64
2021/09/29 12:49:01;;;;;;;7.22;1.20;;;;;;;15.72;55.62;101805.09;5031904;28;20057;-63
2021/09/29 12:51:32;;;;;;;7.13;1.20;;;;;;;15.51;55.82;101788.19;5033556;28;20054;-62
2021/09/29 12:54:02;;;;;;;5.55;1.00;;;;;;;15.76;55.74;101795.78;5031774;28;20054;-67
2021/09/29 12:56:30;;;;;;;9.45;1.17;;;;;;;15.55;54.01;101799.47;5017262;28;20049;-65
2021/09/29 12:58:57;;;;;;;7.15;1.27;;;;;;;15.70;55.23;101808.19;5032860;28;20056;-63
2021/09/29 13:01:24;;;;;;;9.57;1.48;;;;;;;16.03;53.77;101810.56;5030897;28;20060;-64
2021/09/29 13:03:52;;;;;;;9.57;1.20;;;;;;;16.10;53.03;101811.75;5034457;28;20045;-65
2021/09/29 13:06:19;;;;;;;7.00;1.13;;;;;;;16.07;52.67;101815.16;5034369;28;20041;-70
2021/09/29 13:08:46;;;;;;;5.47;1.40;;;;;;;15.91;53.28;101821.50;5030350;28;20056;-70
2021/09/29 13:11:14;;;;;;;5.15;0.88;;;;;;;15.47;54.85;101831.63;5017128;28;20056;-65
2021/09/29 13:13:41;;;;;;;7.03;1.10;;;;;;;15.46;55.84;101838.28;5000438;28;20052;-65
2021/09/29 13:16:08;;;;;;;7.03;1.10;;;;;;;15.45;56.46;101855.28;5016971;28;20049;-69
2021/09/29 13:24:02;;;;;;;2.17;0.68;;;;;;;15.16;54.62;101866.84;5016020;28;20068;-64
2021/09/29 13:37:28;;;;;;;3.30;0.88;;;;;;;15.29;52.79;101871.47;4965342;28;20512;-63
2021/09/29 13:39:56;;;;;;;2.13;0.70;;;;;;;15.21;52.86;101875.03;5034848;28;20060;-62
2021/09/29 13:42:23;;;;;;;4.90;1.05;;;;;;;15.02;52.55;101879.13;5034628;28;20496;-66
2021/09/29 13:44:52;;;;;;;3.58;0.88;;;;;;;14.87;53.22;101866.44;5033902;28;20076;-65
2021/09/29 13:47:20;;;;;;;2.53;0.65;;;;;;;15.16;53.27;101871.56;5032656;28;20057;-66
2021/09/29 13:49:48;;;;;;;5.30;0.90;;;;;;;15.31;52.69;101885.03;4999339;28;20061;-65
2021/09/29 13:52:19;;;;;;;4.03;1.00;;;;;;;15.28;52.68;101875.41;5029607;28;20058;-66
2021/09/29 13:54:49;;;;;;;4.47;0.70;;;;;;;15.61;52.58;101875.94;5031320;28;20101;-62
2021/09/29 13:57:20;;;;;;;5.30;0.95;;;;;;;15.26;53.18;101888.78;5034025;28;20042;-66
2021/09/29 14:01:11;;;;;;;6.10;1.02;;;;;;;15.39;53.51;101882.34;5015100;28;20405;-64
2021/09/29 14:30:30;;;;;;;6.72;1.00;;;;;;;16.13;51.11;101888.09;5044970;28;20048;-67
2021/09/29 14:33:18;;;;;;;3.83;0.90;;;;;;;16.40;51.40;101893.41;5037191;28;20061;-65
2021/09/29 14:35:45;;;;;;;7.28;1.13;;;;;;;16.54;51.00;101894.13;5037279;28;20053;-62
2021/09/29 14:38:13;;;;;;;5.90;1.25;;;;;;;15.86;52.36;101900.25;5035913;28;20404;-66
2021/09/29 14:40:40;;;;;;;8.27;1.25;;;;;;;16.38;52.51;101910.41;5043840;28;20669;-66
2021/09/29 14:43:07;;;;;;;8.90;1.55;;;;;;;16.14;52.83;101906.41;5036555;28;20384;-63
2021/09/29 14:45:36;;;;;;;6.15;1.33;;;;;;;15.79;52.75;101920.16;5035181;28;20049;-67